createdAt,value
2017-09-28T00:01:42.906Z,17.30
2017-09-28T00:04:11.959Z,18.53
2017-09-28T00:06:40.991Z,16.70
2017-09-28T00:09:10.039Z,15.70
2017-09-28T00:11:39.106Z,17.90
2017-09-28T00:14:08.146Z,15.40
2017-09-28T00:16:38.150Z,17.03
2017-09-28T00:19:07.227Z,16.30
2017-09-28T00:21:36.296Z,12.00
2017-09-28T00:24:05.350Z,10.47
2017-09-28T00:26:34.440Z,9.87
2017-09-28T00:29:04.472Z,10.80
2017-09-28T00:31:34.416Z,11.97
2017-09-28T00:34:04.417Z,10.90
2017-09-28T00:36:34.452Z,11.97
2017-09-28T00:39:03.491Z,11.33
2017-09-28T00:41:33.551Z,12.07
2017-09-28T00:44:02.602Z,12.80
2017-09-28T00:46:31.647Z,13.17
2017-09-28T00:49:00.720Z,13.43
2017-09-28T00:51:29.810Z,11.90
2017-09-28T00:53:59.462Z,12.67
2017-09-28T00:56:28.518Z,15.27
2017-09-28T00:58:57.618Z,16.63
2017-09-28T01:01:26.672Z,16.30
2017-09-28T01:03:55.708Z,15.23
2017-09-28T01:06:24.809Z,13.53
2017-09-28T01:08:54.522Z,14.47
2017-09-28T01:11:23.590Z,12.33
2017-09-28T01:13:52.714Z,14.03
2017-09-28T01:16:21.860Z,12.27
2017-09-28T01:18:50.916Z,11.00
2017-09-28T01:21:19.964Z,11.27
2017-09-28T01:23:49.030Z,13.47
2017-09-28T01:26:18.976Z,11.80
2017-09-28T01:28:48.051Z,11.50
2017-09-28T01:31:17.108Z,12.50
2017-09-28T01:33:47.092Z,12.20
2017-09-28T01:36:16.190Z,13.60
2017-09-28T01:38:45.235Z,14.07
2017-09-28T01:41:14.299Z,17.40
2017-09-28T01:43:43.352Z,20.77
2017-09-28T01:46:12.387Z,22.60
2017-09-28T01:48:41.451Z,21.77
2017-09-28T01:51:10.494Z,25.70
2017-09-28T01:53:39.543Z,35.97
2017-09-28T01:56:08.647Z,42.23
2017-09-28T01:58:42.068Z,43.23
2017-09-28T02:01:11.112Z,34.73
2017-09-28T02:03:40.180Z,42.20
2017-09-28T02:06:09.234Z,43.90
2017-09-28T02:08:38.343Z,36.67
2017-09-28T02:11:07.436Z,32.90
2017-09-28T02:13:36.487Z,28.80
2017-09-28T02:16:05.547Z,23.67
2017-09-28T02:18:34.610Z,19.87
2017-09-28T02:21:03.653Z,16.83
2017-09-28T02:23:32.697Z,13.77
2017-09-28T02:26:01.770Z,12.80
2017-09-28T02:28:31.778Z,13.10
2017-09-28T02:31:00.870Z,14.90
2017-09-28T02:33:29.914Z,15.03
2017-09-28T02:35:58.945Z,15.90
2017-09-28T02:38:28.099Z,15.60
2017-09-28T02:40:57.135Z,17.80
2017-09-28T02:43:26.192Z,16.73
2017-09-28T02:45:55.232Z,14.30
2017-09-28T02:48:24.278Z,17.50
2017-09-28T02:50:53.311Z,16.13
2017-09-28T02:53:22.380Z,15.43
2017-09-28T02:55:51.413Z,15.33
2017-09-28T02:58:20.450Z,14.10
2017-09-28T03:00:49.539Z,13.00
2017-09-28T03:03:19.523Z,15.03
2017-09-28T03:05:48.554Z,12.73
2017-09-28T03:08:17.606Z,12.10
2017-09-28T03:10:46.755Z,11.40
2017-09-28T03:13:15.791Z,11.63
2017-09-28T03:15:44.836Z,11.67
2017-09-28T03:18:13.930Z,12.40
2017-09-28T03:20:43.025Z,14.10
2017-09-28T03:23:12.055Z,14.73
2017-09-28T03:25:41.110Z,18.97
2017-09-28T03:28:10.142Z,32.57
2017-09-28T03:30:39.282Z,35.77
2017-09-28T03:33:08.399Z,36.83
2017-09-28T03:35:37.433Z,35.00
2017-09-28T03:38:06.489Z,42.57
2017-09-28T03:40:35.535Z,42.07
2017-09-28T03:43:04.588Z,36.60
2017-09-28T03:45:33.635Z,48.23
2017-09-28T03:48:02.677Z,39.77
2017-09-28T03:50:31.714Z,37.00
2017-09-28T03:53:00.885Z,41.57
2017-09-28T03:55:29.902Z,32.43
2017-09-28T03:57:58.933Z,30.97
2017-09-28T04:00:28.006Z,35.37
2017-09-28T04:02:57.097Z,24.00
2017-09-28T04:05:26.129Z,16.53
2017-09-28T04:07:55.172Z,15.27
2017-09-28T04:10:24.279Z,15.40
2017-09-28T04:12:53.338Z,15.87
2017-09-28T04:15:22.403Z,17.80
2017-09-28T04:17:51.483Z,16.07
2017-09-28T04:20:20.530Z,20.03
2017-09-28T04:22:49.570Z,19.40
2017-09-28T04:25:18.622Z,15.63
2017-09-28T04:27:47.663Z,14.87
2017-09-28T04:30:16.726Z,16.30
2017-09-28T04:32:46.693Z,22.57
2017-09-28T04:35:15.724Z,19.40
2017-09-28T04:37:44.787Z,15.57
2017-09-28T04:40:16.115Z,18.73
2017-09-28T04:42:46.093Z,25.50
2017-09-28T04:45:15.126Z,15.80
2017-09-28T04:47:44.227Z,15.67
2017-09-28T04:50:13.294Z,18.70
2017-09-28T04:52:42.376Z,24.53
2017-09-28T04:55:11.538Z,35.60
2017-09-28T04:57:40.598Z,33.70
2017-09-28T05:00:09.655Z,33.30
2017-09-28T05:02:38.666Z,33.90
2017-09-28T05:05:07.790Z,35.20
2017-09-28T05:07:36.831Z,36.33
2017-09-28T05:10:06.075Z,31.97
2017-09-28T05:12:35.122Z,25.47
2017-09-28T05:15:04.244Z,26.13
2017-09-28T05:17:33.425Z,21.40
2017-09-28T05:20:03.581Z,20.93
2017-09-28T05:22:32.951Z,17.13
2017-09-28T05:25:02.211Z,18.20
2017-09-28T05:27:31.250Z,18.57
2017-09-28T05:30:00.286Z,16.07
2017-09-28T05:32:29.483Z,16.93
2017-09-28T05:34:58.535Z,16.33
2017-09-28T05:37:27.644Z,13.50
2017-09-28T05:39:57.557Z,11.23
2017-09-28T05:42:26.640Z,11.00
2017-09-28T05:44:55.762Z,10.70
2017-09-28T05:47:25.817Z,11.30
2017-09-28T05:49:54.871Z,10.30
2017-09-28T05:52:23.912Z,11.60
2017-09-28T05:54:53.008Z,11.30
2017-09-28T05:57:22.033Z,11.93
2017-09-28T05:59:51.093Z,13.37
2017-09-28T06:02:20.137Z,11.73
2017-09-28T06:04:49.410Z,11.30
2017-09-28T06:07:18.458Z,12.10
2017-09-28T06:09:47.555Z,10.87
2017-09-28T06:12:16.566Z,10.50
2017-09-28T06:14:45.614Z,10.83
2017-09-28T06:17:14.688Z,10.53
2017-09-28T06:19:46.279Z,10.10
2017-09-28T06:22:19.655Z,10.93
2017-09-28T06:24:48.987Z,10.37
2017-09-28T06:27:18.407Z,10.83
2017-09-28T06:29:47.477Z,10.90
2017-09-28T06:32:16.541Z,9.67
2017-09-28T06:34:45.622Z,9.77
2017-09-28T06:37:14.670Z,9.67
2017-09-28T06:39:43.754Z,10.47
2017-09-28T06:42:12.816Z,8.50
2017-09-28T06:44:41.908Z,8.27
2017-09-28T06:47:10.966Z,9.53
2017-09-28T06:49:40.046Z,9.13
2017-09-28T06:52:09.065Z,8.53
2017-09-28T06:54:38.289Z,8.60
2017-09-28T06:57:07.334Z,8.00
2017-09-28T06:59:40.072Z,7.20
2017-09-28T07:02:22.762Z,8.30
2017-09-28T07:04:53.301Z,7.97
2017-09-28T07:07:23.706Z,7.30
2017-09-28T07:09:53.051Z,8.03
2017-09-28T07:12:22.114Z,7.23
2017-09-28T07:14:52.813Z,6.27
2017-09-28T07:17:22.810Z,8.10
2017-09-28T07:19:53.413Z,7.80
2017-09-28T07:22:23.181Z,7.40
2017-09-28T07:24:52.234Z,8.20
2017-09-28T07:27:22.126Z,7.17
2017-09-28T07:29:51.839Z,7.17
2017-09-28T07:32:20.931Z,7.33
2017-09-28T07:34:52.698Z,7.27
2017-09-28T07:37:22.549Z,6.93
2017-09-28T07:39:51.613Z,7.13
2017-09-28T07:42:21.521Z,6.67
2017-09-28T07:44:50.569Z,6.87
2017-09-28T07:47:20.811Z,6.90
2017-09-28T07:49:51.022Z,7.40
2017-09-28T07:52:20.102Z,6.50
2017-09-28T07:54:50.119Z,6.73
2017-09-28T07:57:20.447Z,6.70
2017-09-28T07:59:49.482Z,6.20
2017-09-28T08:02:19.571Z,7.00
2017-09-28T08:04:48.727Z,6.30
2017-09-28T08:07:17.776Z,5.90
2017-09-28T08:09:46.830Z,6.00
2017-09-28T08:12:15.879Z,6.77
2017-09-28T08:14:44.930Z,7.37
2017-09-28T08:17:13.967Z,6.70
2017-09-28T08:19:43.033Z,6.80
2017-09-28T08:22:12.151Z,6.10
2017-09-28T08:24:41.239Z,6.30
2017-09-28T08:27:10.290Z,7.07
2017-09-28T08:29:39.338Z,5.90
2017-09-28T08:32:08.389Z,6.50
2017-09-28T08:34:37.443Z,6.90
2017-09-28T08:37:06.478Z,6.60
2017-09-28T08:39:35.529Z,6.10
2017-09-28T08:42:04.595Z,5.93
2017-09-28T08:44:33.660Z,6.80
2017-09-28T08:47:02.697Z,6.47
2017-09-28T08:49:33.757Z,6.77
2017-09-28T08:52:02.755Z,6.10
2017-09-28T08:54:31.811Z,6.07
2017-09-28T08:57:00.880Z,6.80
2017-09-28T08:59:29.906Z,7.17
2017-09-28T09:01:58.967Z,6.33
2017-09-28T09:04:29.349Z,7.97
2017-09-28T09:06:58.727Z,7.73
2017-09-28T09:09:27.854Z,7.10
2017-09-28T09:11:57.318Z,7.83
2017-09-28T09:14:26.458Z,8.20
2017-09-28T09:16:55.506Z,7.90
2017-09-28T09:19:24.574Z,7.90
2017-09-28T09:21:53.623Z,7.43
2017-09-28T09:24:22.660Z,7.27
2017-09-28T09:26:52.729Z,8.20
2017-09-28T09:29:21.799Z,6.80
2017-09-28T09:31:51.498Z,6.67
2017-09-28T09:34:20.534Z,7.53
2017-09-28T09:36:50.634Z,7.07
2017-09-28T09:39:20.606Z,7.13
2017-09-28T09:41:49.651Z,7.50
2017-09-28T09:44:19.587Z,7.43
2017-09-28T09:46:48.627Z,6.60
2017-09-28T09:49:17.670Z,7.00
2017-09-28T09:51:46.739Z,6.50
2017-09-28T09:54:15.803Z,5.83
2017-09-28T09:56:45.673Z,6.87
2017-09-28T09:59:14.723Z,6.90
2017-09-28T10:01:44.477Z,6.70
2017-09-28T10:04:14.084Z,7.03
2017-09-28T10:06:49.294Z,6.30
2017-09-28T10:09:24.375Z,6.80
2017-09-28T10:11:58.594Z,6.77
2017-09-28T10:14:30.283Z,6.27
2017-09-28T10:16:59.317Z,6.43
2017-09-28T10:19:30.762Z,7.27
2017-09-28T10:22:00.577Z,5.97
2017-09-28T10:24:29.800Z,6.53
2017-09-28T10:27:01.872Z,6.30
2017-09-28T10:29:31.977Z,6.23
2017-09-28T10:32:01.002Z,6.70
2017-09-28T10:34:33.135Z,6.53
2017-09-28T10:37:03.284Z,6.40
2017-09-28T10:39:32.357Z,6.27
2017-09-28T10:42:04.792Z,6.23
2017-09-28T10:44:34.807Z,7.27
2017-09-28T10:47:03.847Z,7.47
2017-09-28T10:49:35.151Z,6.97
2017-09-28T10:52:05.104Z,7.10
2017-09-28T10:54:34.171Z,6.70
2017-09-28T10:57:04.589Z,6.43
2017-09-28T10:59:34.511Z,6.90
2017-09-28T11:02:03.539Z,6.87
2017-09-28T11:04:35.330Z,7.13
2017-09-28T11:07:05.205Z,6.57
2017-09-28T11:09:34.289Z,6.30
2017-09-28T11:12:04.995Z,6.37
2017-09-28T11:14:34.837Z,6.20
2017-09-28T11:17:03.970Z,5.53
2017-09-28T11:19:34.561Z,5.70
2017-09-28T11:22:06.143Z,6.13
2017-09-28T11:24:35.941Z,5.20
2017-09-28T11:27:08.413Z,5.47
2017-09-28T11:29:37.894Z,6.40
2017-09-28T11:32:06.982Z,5.60
2017-09-28T11:34:36.907Z,5.93
2017-09-28T11:37:05.956Z,6.40
2017-09-28T11:39:35.007Z,6.30
2017-09-28T11:42:04.428Z,5.90
2017-09-28T11:44:33.503Z,6.70
2017-09-28T11:47:04.644Z,6.80
2017-09-28T11:49:34.447Z,5.80
2017-09-28T11:52:03.477Z,5.83
2017-09-28T11:54:34.259Z,5.70
2017-09-28T11:57:03.564Z,4.97
2017-09-28T11:59:32.667Z,6.23
2017-09-28T12:02:04.743Z,5.70
2017-09-28T12:04:35.332Z,5.77
2017-09-28T12:07:04.419Z,5.63
2017-09-28T12:09:35.858Z,6.50
2017-09-28T12:12:05.636Z,4.83
2017-09-28T12:14:34.667Z,5.97
2017-09-28T12:17:05.546Z,5.90
2017-09-28T12:19:35.381Z,6.30
2017-09-28T12:22:04.412Z,5.33
2017-09-28T12:24:37.769Z,5.07
2017-09-28T12:27:06.820Z,4.70
2017-09-28T12:29:36.964Z,4.50
2017-09-28T12:32:07.849Z,4.53
2017-09-28T12:34:36.868Z,4.30
2017-09-28T12:37:05.911Z,4.43
2017-09-28T12:39:34.990Z,4.37
2017-09-28T12:42:04.032Z,4.57
2017-09-28T12:44:33.075Z,4.37
2017-09-28T12:47:02.767Z,4.20
2017-09-28T12:49:31.823Z,4.40
2017-09-28T12:52:00.858Z,4.80
2017-09-28T12:54:29.952Z,4.80
2017-09-28T12:56:59.018Z,4.83
2017-09-28T12:59:28.079Z,5.00
2017-09-28T13:01:57.189Z,4.60
2017-09-28T13:04:26.207Z,5.20
2017-09-28T13:06:55.252Z,4.30
2017-09-28T13:09:24.326Z,4.67
2017-09-28T13:11:53.347Z,3.70
2017-09-28T13:14:22.415Z,4.03
2017-09-28T13:16:51.487Z,4.90
2017-09-28T13:19:20.534Z,4.50
2017-09-28T13:21:49.640Z,4.70
2017-09-28T13:24:18.737Z,4.10
2017-09-28T13:26:47.995Z,4.10
2017-09-28T13:29:17.059Z,4.40
2017-09-28T13:31:46.119Z,4.13
2017-09-28T13:34:15.319Z,4.90
2017-09-28T13:36:44.392Z,3.80
2017-09-28T13:39:13.442Z,3.80
2017-09-28T13:41:42.532Z,4.10
2017-09-28T13:44:11.571Z,4.07
2017-09-28T13:46:40.647Z,3.83
2017-09-28T13:49:09.709Z,4.03
2017-09-28T13:51:38.727Z,3.60
2017-09-28T13:54:07.812Z,3.20
2017-09-28T13:56:36.858Z,4.00
2017-09-28T13:59:05.979Z,3.40
2017-09-28T14:01:35.102Z,4.00
2017-09-28T14:04:04.138Z,3.57
2017-09-28T14:06:33.228Z,3.50
2017-09-28T14:09:02.301Z,3.93
2017-09-28T14:11:31.374Z,3.57
2017-09-28T14:14:00.570Z,4.17
2017-09-28T14:16:29.678Z,4.57
2017-09-28T14:18:58.760Z,3.10
2017-09-28T14:21:27.900Z,4.20
2017-09-28T14:23:56.968Z,3.37
2017-09-28T14:26:26.001Z,3.33
2017-09-28T14:28:55.079Z,3.77
2017-09-28T14:31:24.127Z,4.60
2017-09-28T14:33:53.221Z,4.63
2017-09-28T14:36:22.320Z,5.20
2017-09-28T14:38:51.512Z,5.20
2017-09-28T14:41:20.555Z,4.00
2017-09-28T14:43:49.599Z,4.67
2017-09-28T14:46:18.749Z,5.10
2017-09-28T14:48:47.798Z,4.40
2017-09-28T14:51:16.843Z,4.40
2017-09-28T14:53:46.893Z,4.40
2017-09-28T14:56:15.954Z,5.10
2017-09-28T14:58:45.092Z,4.60
2017-09-28T15:01:14.207Z,4.67
2017-09-28T15:03:46.130Z,5.37
2017-09-28T15:06:16.135Z,4.73
2017-09-28T15:08:45.216Z,5.07
2017-09-28T15:11:15.299Z,5.63
2017-09-28T15:13:44.345Z,4.67
2017-09-28T15:16:13.416Z,4.73
2017-09-28T15:18:42.458Z,5.60
2017-09-28T15:21:11.498Z,4.73
2017-09-28T15:23:40.558Z,4.87
2017-09-28T15:26:09.607Z,5.30
2017-09-28T15:28:38.650Z,5.03
2017-09-28T15:31:07.701Z,5.07
2017-09-28T15:33:36.741Z,4.73
2017-09-28T15:36:05.787Z,4.43
2017-09-28T15:38:34.873Z,4.43
2017-09-28T15:41:04.932Z,5.23
2017-09-28T15:43:34.055Z,4.57
2017-09-28T15:46:03.861Z,5.90
2017-09-28T15:48:33.586Z,4.70
2017-09-28T15:51:02.855Z,4.47
2017-09-28T15:53:35.233Z,4.87
2017-09-28T15:56:04.429Z,5.00
2017-09-28T15:58:33.622Z,5.47
2017-09-28T16:01:03.031Z,5.00
2017-09-28T16:03:32.882Z,5.47
2017-09-28T16:06:02.286Z,5.53
2017-09-28T16:08:31.387Z,4.40
2017-09-28T16:11:00.437Z,4.70
2017-09-28T16:13:30.505Z,4.90
2017-09-28T16:16:00.067Z,5.03
2017-09-28T16:18:29.123Z,5.83
2017-09-28T16:20:58.177Z,6.70
2017-09-28T16:23:27.264Z,5.50
2017-09-28T16:25:56.317Z,5.20
2017-09-28T16:28:25.415Z,7.07
2017-09-28T16:30:54.452Z,6.00
2017-09-28T16:33:23.509Z,6.13
2017-09-28T16:35:52.604Z,6.50
2017-09-28T16:38:21.652Z,6.07
2017-09-28T16:40:50.697Z,7.03
2017-09-28T16:43:19.738Z,5.30
2017-09-28T16:45:48.787Z,5.00
2017-09-28T16:48:18.068Z,6.07
2017-09-28T16:50:47.129Z,6.90
2017-09-28T16:53:16.170Z,6.90
2017-09-28T16:55:45.241Z,6.50
2017-09-28T16:58:14.274Z,6.40
2017-09-28T17:00:43.306Z,6.40
2017-09-28T17:03:12.398Z,6.03
2017-09-28T17:05:41.799Z,6.00
2017-09-28T17:08:11.540Z,5.93
2017-09-28T17:10:40.648Z,5.23
2017-09-28T17:13:09.864Z,5.17
2017-09-28T17:15:39.166Z,5.80
2017-09-28T17:18:08.243Z,6.43
2017-09-28T17:20:37.822Z,6.90
2017-09-28T17:23:06.893Z,6.10
2017-09-28T17:25:35.986Z,8.23
2017-09-28T17:28:06.211Z,12.90
2017-09-28T17:30:35.313Z,10.20
2017-09-28T17:33:04.393Z,8.50
2017-09-28T17:35:33.482Z,8.10
2017-09-28T17:38:02.635Z,8.10
2017-09-28T17:40:31.819Z,6.47
2017-09-28T17:43:00.993Z,6.20
2017-09-28T17:45:30.115Z,7.40
2017-09-28T17:48:00.164Z,6.70
2017-09-28T17:50:29.287Z,7.40
2017-09-28T17:52:58.407Z,8.03
2017-09-28T17:55:27.465Z,7.63
2017-09-28T17:57:56.634Z,7.93
2017-09-28T18:00:27.783Z,7.47
2017-09-28T18:02:56.883Z,9.07
2017-09-28T18:05:26.401Z,7.90
2017-09-28T18:07:55.445Z,8.87
2017-09-28T18:10:25.543Z,7.03
2017-09-28T18:12:55.570Z,7.57
2017-09-28T18:15:24.607Z,6.83
2017-09-28T18:17:55.794Z,7.53
2017-09-28T18:20:24.885Z,6.83
2017-09-28T18:22:53.978Z,7.10
2017-09-28T18:25:24.182Z,6.53
2017-09-28T18:27:53.304Z,6.87
2017-09-28T18:30:23.349Z,7.30
2017-09-28T18:32:52.407Z,7.37
2017-09-28T18:35:22.454Z,8.97
2017-09-28T18:37:51.764Z,7.60
2017-09-28T18:40:20.873Z,7.50
2017-09-28T18:42:50.212Z,9.83
2017-09-28T18:45:19.460Z,10.37
2017-09-28T18:47:48.543Z,10.20
2017-09-28T18:50:17.974Z,12.73
2017-09-28T18:52:47.074Z,12.37
2017-09-28T18:55:16.152Z,12.13
2017-09-28T18:57:45.285Z,11.17
2017-09-28T19:00:15.219Z,10.80
2017-09-28T19:02:44.341Z,12.87
2017-09-28T19:05:13.471Z,9.37
2017-09-28T19:07:42.504Z,8.93
2017-09-28T19:10:11.741Z,9.87
2017-09-28T19:12:40.790Z,9.93
2017-09-28T19:15:09.847Z,8.27
2017-09-28T19:17:39.196Z,7.20
2017-09-28T19:20:08.291Z,7.87
2017-09-28T19:22:37.323Z,9.20
2017-09-28T19:25:06.832Z,9.10
2017-09-28T19:27:35.873Z,10.50
2017-09-28T19:30:05.318Z,9.73
2017-09-28T19:32:34.459Z,8.50
2017-09-28T19:35:03.498Z,9.17
2017-09-28T19:37:32.577Z,10.37
2017-09-28T19:40:01.647Z,12.27
2017-09-28T19:42:30.707Z,11.00
2017-09-28T19:44:59.761Z,9.77
2017-09-28T19:47:28.805Z,9.63
2017-09-28T19:49:57.976Z,8.00
2017-09-28T19:52:27.100Z,8.00
2017-09-28T19:54:56.173Z,7.40
2017-09-28T19:57:26.588Z,12.50
2017-09-28T19:59:55.656Z,10.70
2017-09-28T20:02:24.808Z,10.90
2017-09-28T20:04:53.870Z,10.53
2017-09-28T20:07:22.923Z,9.07
2017-09-28T20:09:52.983Z,9.10
2017-09-28T20:12:22.902Z,10.07
2017-09-28T20:14:53.270Z,10.17
2017-09-28T20:17:22.394Z,9.70
2017-09-28T20:19:51.545Z,9.10
2017-09-28T20:22:20.752Z,9.10
2017-09-28T20:24:49.831Z,8.23
2017-09-28T20:27:20.075Z,8.60
2017-09-28T20:29:49.154Z,8.00
2017-09-28T20:32:18.234Z,9.60
2017-09-28T20:34:47.342Z,9.80
2017-09-28T20:37:16.416Z,7.47
2017-09-28T20:39:45.496Z,8.33
2017-09-28T20:42:14.584Z,7.93
2017-09-28T20:44:43.640Z,8.90
2017-09-28T20:47:12.698Z,9.70
2017-09-28T20:49:41.755Z,9.70
2017-09-28T20:52:10.816Z,10.40
2017-09-28T20:54:39.884Z,12.43
2017-09-28T20:57:08.956Z,10.43
2017-09-28T20:59:38.009Z,9.47
2017-09-28T21:02:07.054Z,10.20
2017-09-28T21:04:38.218Z,9.90
2017-09-28T21:07:11.757Z,9.23
2017-09-28T21:09:40.815Z,9.43
2017-09-28T21:12:10.063Z,9.90
2017-09-28T21:14:39.105Z,8.77
2017-09-28T21:17:08.180Z,8.83
2017-09-28T21:19:38.755Z,8.30
2017-09-28T21:22:07.803Z,7.70
2017-09-28T21:24:37.121Z,8.80
2017-09-28T21:27:08.458Z,8.93
2017-09-28T21:29:42.542Z,9.10
2017-09-28T21:32:15.129Z,8.23
2017-09-28T21:34:47.082Z,8.10
2017-09-28T21:37:16.983Z,7.47
2017-09-28T21:39:46.210Z,7.80
2017-09-28T21:42:15.231Z,7.27
2017-09-28T21:44:44.358Z,7.50
2017-09-28T21:47:13.441Z,7.93
2017-09-28T21:49:42.535Z,8.30
2017-09-28T21:52:11.687Z,8.20
2017-09-28T21:54:41.146Z,8.57
2017-09-28T21:57:14.062Z,9.77
2017-09-28T21:59:43.478Z,10.00
2017-09-28T22:02:12.832Z,10.30
2017-09-28T22:04:42.211Z,13.30
2017-09-28T22:07:12.307Z,12.27
2017-09-28T22:09:41.448Z,14.33
2017-09-28T22:12:10.557Z,12.83
2017-09-28T22:14:41.011Z,11.90
2017-09-28T22:17:11.414Z,12.07
2017-09-28T22:19:41.381Z,10.77
2017-09-28T22:22:11.888Z,12.30
2017-09-28T22:24:42.368Z,12.53
2017-09-28T22:27:11.522Z,11.77
2017-09-28T22:29:40.608Z,13.17
2017-09-28T22:32:11.302Z,11.03
2017-09-28T22:34:41.437Z,12.20
2017-09-28T22:37:10.970Z,11.20
2017-09-28T22:39:40.615Z,10.90
2017-09-28T22:42:10.808Z,11.20
2017-09-28T22:44:40.016Z,11.20
2017-09-28T22:47:10.852Z,10.27
2017-09-28T22:49:39.942Z,11.63
2017-09-28T22:52:10.073Z,11.13
2017-09-28T22:54:39.959Z,9.30
2017-09-28T22:57:10.818Z,13.90
2017-09-28T22:59:41.958Z,12.87
2017-09-28T23:02:12.492Z,12.20
2017-09-28T23:04:41.791Z,15.20
2017-09-28T23:07:10.827Z,16.30
2017-09-28T23:09:40.519Z,15.87
2017-09-28T23:12:09.860Z,18.90
2017-09-28T23:14:40.158Z,18.20
2017-09-28T23:17:10.201Z,15.47
2017-09-28T23:19:39.475Z,17.17
2017-09-28T23:22:08.944Z,10.70
2017-09-28T23:24:39.302Z,11.00
2017-09-28T23:27:08.433Z,10.63
2017-09-28T23:29:37.795Z,10.27
2017-09-28T23:32:06.860Z,10.40
2017-09-28T23:34:36.131Z,9.90
2017-09-28T23:37:05.171Z,10.13
2017-09-28T23:39:35.932Z,10.53
2017-09-28T23:42:04.965Z,9.57
2017-09-28T23:44:34.039Z,10.67
2017-09-28T23:47:03.999Z,10.17
2017-09-28T23:49:33.050Z,10.20
2017-09-28T23:52:02.107Z,10.03
2017-09-28T23:54:31.170Z,8.87
2017-09-28T23:57:03.867Z,10.27
2017-09-28T23:59:32.951Z,10.87
